Yellowstone Regional Airport Cody US
ICAO: KCOD
IATA: COD
Category: Medium
Scheduled Services: No

Elevation: 5102 ft
TransAlt. 18000 ft.

Airport Communications:
AWOS 3:135.075
SALT LAKE CITY CNTR:133.25
CASPER RDO:122.3
CTAF/UNICOM:122.8

KCOD Zoom In..

If Map Doesn't Load, Click Here

Runways:

(A) RW 04 length 8268 ft width 100 ft
---- / hdg 38

(B) RW 22 length 8268 ft width 100 ft
---- / hdg 218

Location; KCOD
Day. 23 / Time. 08.56 Zulu
* Altimeter: 29.95
* Temperature: 10° c. 50°f.
* Wind from: 050° Speed 09 kn.
Dewpoint: 02° c.
Visibility: 10 Statute Miles.
Clouds: Clear (automated report).

KCOD 230856Z AUTO 05009KT 10SM CLR 10/02 A2995 RMK AO2 SLP105 T01000017 55000


Wind From 050°
Speed 09 kn.

 
 
jpsmedia.com for Web Design worldairports.se 2018   terms of use